sensor_id;sensor_type;location;lat;lon;timestamp;pressure;altitude;pressure_sealevel;temperature;humidity
78623;BME280;67943;54.412;9.502;2023-05-10T00:04:54;100710.88;;;15.90;41.56
78623;BME280;67943;54.412;9.502;2023-05-10T00:09:56;100712.59;;;15.91;41.80
78623;BME280;67943;54.412;9.502;2023-05-10T00:14:58;100711.53;;;15.95;41.64
78623;BME280;67943;54.412;9.502;2023-05-10T00:20:00;100713.16;;;15.79;42.13
78623;BME280;67943;54.412;9.502;2023-05-10T00:25:02;100702.28;;;15.85;42.29
78623;BME280;67943;54.412;9.502;2023-05-10T00:30:06;100692.88;;;15.78;42.19
78623;BME280;67943;54.412;9.502;2023-05-10T00:35:08;100681.34;;;15.79;42.54
78623;BME280;67943;54.412;9.502;2023-05-10T00:40:10;100685.31;;;15.69;42.43
78623;BME280;67943;54.412;9.502;2023-05-10T00:45:13;100678.81;;;15.56;42.86
78623;BME280;67943;54.412;9.502;2023-05-10T00:50:15;100674.09;;;15.62;42.87
78623;BME280;67943;54.412;9.502;2023-05-10T00:55:17;100673.38;;;15.79;42.45
78623;BME280;67943;54.412;9.502;2023-05-10T01:00:21;100663.84;;;15.54;43.06
78623;BME280;67943;54.412;9.502;2023-05-10T01:05:22;100670.84;;;15.35;43.44
78623;BME280;67943;54.412;9.502;2023-05-10T01:10:24;100656.34;;;15.24;43.74
78623;BME280;67943;54.412;9.502;2023-05-10T01:15:27;100665.88;;;15.07;44.42
78623;BME280;67943;54.412;9.502;2023-05-10T01:20:35;100663.63;;;14.98;44.52
78623;BME280;67943;54.412;9.502;2023-05-10T01:25:55;100657.72;;;14.92;44.73
78623;BME280;67943;54.412;9.502;2023-05-10T01:31:14;100664.19;;;14.84;45.09
78623;BME280;67943;54.412;9.502;2023-05-10T01:36:24;100651.97;;;14.80;45.00
78623;BME280;67943;54.412;9.502;2023-05-10T01:41:36;100651.66;;;14.68;45.39
78623;BME280;67943;54.412;9.502;2023-05-10T01:46:39;100647.22;;;14.68;45.39
78623;BME280;67943;54.412;9.502;2023-05-10T01:51:47;100654.91;;;14.52;45.86
78623;BME280;67943;54.412;9.502;2023-05-10T01:56:55;100654.75;;;14.34;46.51
78623;BME280;67943;54.412;9.502;2023-05-10T02:01:59;100645.06;;;14.33;46.50
78623;BME280;67943;54.412;9.502;2023-05-10T02:07:03;100648.88;;;14.26;46.76
78623;BME280;67943;54.412;9.502;2023-05-10T02:12:06;100641.34;;;14.15;46.96
78623;BME280;67943;54.412;9.502;2023-05-10T02:17:09;100654.78;;;14.10;47.33
78623;BME280;67943;54.412;9.502;2023-05-10T02:22:13;100649.81;;;14.01;47.39
78623;BME280;67943;54.412;9.502;2023-05-10T02:27:15;100658.91;;;13.94;47.50
78623;BME280;67943;54.412;9.502;2023-05-10T02:32:17;100650.38;;;13.86;47.89
78623;BME280;67943;54.412;9.502;2023-05-10T02:37:21;100653.97;;;13.85;48.09
78623;BME280;67943;54.412;9.502;2023-05-10T02:42:25;100647.09;;;13.81;48.54
78623;BME280;67943;54.412;9.502;2023-05-10T02:47:28;100643.78;;;13.74;48.47
78623;BME280;67943;54.412;9.502;2023-05-10T02:52:39;100641.31;;;13.70;48.97
78623;BME280;67943;54.412;9.502;2023-05-10T02:57:45;100637.97;;;13.65;48.76
78623;BME280;67943;54.412;9.502;2023-05-10T03:02:48;100640.06;;;13.57;49.03
78623;BME280;67943;54.412;9.502;2023-05-10T03:07:51;100638.50;;;13.51;49.26
78623;BME280;67943;54.412;9.502;2023-05-10T03:13:05;100632.56;;;13.44;49.86
78623;BME280;67943;54.412;9.502;2023-05-10T03:18:10;100633.75;;;13.36;49.99
78623;BME280;67943;54.412;9.502;2023-05-10T03:23:21;100631.09;;;13.36;49.98
78623;BME280;67943;54.412;9.502;2023-05-10T03:28:25;100640.00;;;13.33;50.39
78623;BME280;67943;54.412;9.502;2023-05-10T03:33:27;100632.31;;;13.27;50.86
78623;BME280;67943;54.412;9.502;2023-05-10T03:38:29;100642.16;;;13.22;51.26
78623;BME280;67943;54.412;9.502;2023-05-10T03:43:31;100635.25;;;13.18;51.28
78623;BME280;67943;54.412;9.502;2023-05-10T03:48:33;100636.31;;;13.12;51.27
78623;BME280;67943;54.412;9.502;2023-05-10T03:53:35;100641.59;;;13.12;51.46
78623;BME280;67943;54.412;9.502;2023-05-10T03:58:37;100631.97;;;13.10;51.66
78623;BME280;67943;54.412;9.502;2023-05-10T04:03:38;100626.91;;;13.04;51.78
78623;BME280;67943;54.412;9.502;2023-05-10T04:08:41;100627.81;;;13.03;51.75
78623;BME280;67943;54.412;9.502;2023-05-10T04:13:43;100628.63;;;13.05;51.90
78623;BME280;67943;54.412;9.502;2023-05-10T04:18:44;100626.69;;;13.10;51.84
78623;BME280;67943;54.412;9.502;2023-05-10T04:23:47;100624.16;;;13.07;51.82
78623;BME280;67943;54.412;9.502;2023-05-10T04:28:48;100625.69;;;13.14;51.67
78623;BME280;67943;54.412;9.502;2023-05-10T04:33:50;100624.22;;;13.05;52.05
78623;BME280;67943;54.412;9.502;2023-05-10T04:38:53;100633.72;;;13.11;51.87
78623;BME280;67943;54.412;9.502;2023-05-10T04:43:55;100623.63;;;13.24;51.35
78623;BME280;67943;54.412;9.502;2023-05-10T04:48:56;100620.31;;;13.17;51.74
78623;BME280;67943;54.412;9.502;2023-05-10T04:53:59;100630.69;;;13.23;51.78
78623;BME280;67943;54.412;9.502;2023-05-10T04:59:01;100617.03;;;13.35;51.26
78623;BME280;67943;54.412;9.502;2023-05-10T05:04:03;100626.56;;;13.39;51.87
78623;BME280;67943;54.412;9.502;2023-05-10T05:09:06;100630.16;;;13.62;51.11
78623;BME280;67943;54.412;9.502;2023-05-10T05:14:08;100628.84;;;13.73;50.66
78623;BME280;67943;54.412;9.502;2023-05-10T05:19:09;100626.78;;;13.81;50.83
78623;BME280;67943;54.412;9.502;2023-05-10T05:24:12;100614.63;;;13.99;50.60
78623;BME280;67943;54.412;9.502;2023-05-10T05:29:13;100617.00;;;14.29;49.58
78623;BME280;67943;54.412;9.502;2023-05-10T05:34:15;100626.84;;;14.25;50.08
78623;BME280;67943;54.412;9.502;2023-05-10T05:39:18;100623.56;;;14.42;49.73
78623;BME280;67943;54.412;9.502;2023-05-10T05:44:19;100624.16;;;14.48;49.41
78623;BME280;67943;54.412;9.502;2023-05-10T05:49:21;100629.06;;;14.79;48.70
78623;BME280;67943;54.412;9.502;2023-05-10T05:54:24;100626.31;;;15.03;48.18
78623;BME280;67943;54.412;9.502;2023-05-10T05:59:25;100624.69;;;15.00;48.40
78623;BME280;67943;54.412;9.502;2023-05-10T06:04:27;100627.66;;;15.13;48.22
78623;BME280;67943;54.412;9.502;2023-05-10T06:09:30;100621.59;;;15.50;47.21
78623;BME280;67943;54.412;9.502;2023-05-10T06:14:31;100612.72;;;15.51;47.00
78623;BME280;67943;54.412;9.502;2023-05-10T06:19:33;100634.19;;;15.65;46.77
78623;BME280;67943;54.412;9.502;2023-05-10T06:24:36;100623.69;;;16.01;46.17
78623;BME280;67943;54.412;9.502;2023-05-10T06:29:37;100623.19;;;16.12;45.50
78623;BME280;67943;54.412;9.502;2023-05-10T06:34:39;100631.84;;;16.34;45.39
78623;BME280;67943;54.412;9.502;2023-05-10T06:39:42;100630.50;;;16.26;45.72
78623;BME280;67943;54.412;9.502;2023-05-10T06:44:43;100640.75;;;16.33;45.51
78623;BME280;67943;54.412;9.502;2023-05-10T06:49:45;100631.66;;;16.56;45.27
78623;BME280;67943;54.412;9.502;2023-05-10T06:54:47;100637.75;;;16.77;44.96
78623;BME280;67943;54.412;9.502;2023-05-10T06:59:49;100645.03;;;16.73;45.26
78623;BME280;67943;54.412;9.502;2023-05-10T07:04:50;100642.09;;;16.97;45.18
78623;BME280;67943;54.412;9.502;2023-05-10T07:09:54;100643.63;;;17.35;44.04
78623;BME280;67943;54.412;9.502;2023-05-10T07:14:56;100649.06;;;17.67;43.42
78623;BME280;67943;54.412;9.502;2023-05-10T07:19:58;100644.28;;;17.73;43.76
78623;BME280;67943;54.412;9.502;2023-05-10T07:25:01;100649.66;;;18.20;42.26
78623;BME280;67943;54.412;9.502;2023-05-10T07:30:04;100653.44;;;18.01;43.49
78623;BME280;67943;54.412;9.502;2023-05-10T07:35:06;100651.22;;;18.25;42.65
78623;BME280;67943;54.412;9.502;2023-05-10T07:40:10;100651.31;;;18.23;43.60
78623;BME280;67943;54.412;9.502;2023-05-10T07:45:11;100650.78;;;18.48;42.66
78623;BME280;67943;54.412;9.502;2023-05-10T07:50:13;100647.75;;;19.01;41.05
78623;BME280;67943;54.412;9.502;2023-05-10T07:55:18;100645.75;;;19.05;41.21
78623;BME280;67943;54.412;9.502;2023-05-10T08:00:20;100645.34;;;18.97;41.48
78623;BME280;67943;54.412;9.502;2023-05-10T08:05:21;100653.63;;;19.36;40.52
78623;BME280;67943;54.412;9.502;2023-05-10T08:10:25;100656.28;;;19.36;40.85
78623;BME280;67943;54.412;9.502;2023-05-10T08:15:26;100661.16;;;19.30;40.74
78623;BME280;67943;54.412;9.502;2023-05-10T08:20:28;100656.44;;;19.05;41.32
78623;BME280;67943;54.412;9.502;2023-05-10T08:25:31;100661.53;;;19.82;39.84
78623;BME280;67943;54.412;9.502;2023-05-10T08:30:33;100661.84;;;19.92;39.83
78623;BME280;67943;54.412;9.502;2023-05-10T08:35:34;100663.50;;;19.93;40.19
78623;BME280;67943;54.412;9.502;2023-05-10T08:40:38;100665.13;;;20.38;39.00
78623;BME280;67943;54.412;9.502;2023-05-10T08:45:42;100657.50;;;20.46;39.35
78623;BME280;67943;54.412;9.502;2023-05-10T08:50:46;100658.38;;;20.18;39.36
78623;BME280;67943;54.412;9.502;2023-05-10T08:55:50;100683.81;;;20.23;39.31
78623;BME280;67943;54.412;9.502;2023-05-10T09:00:52;100676.56;;;20.26;39.85
78623;BME280;67943;54.412;9.502;2023-05-10T09:05:54;100677.84;;;20.61;39.17
78623;BME280;67943;54.412;9.502;2023-05-10T09:10:57;100689.38;;;20.49;38.79
78623;BME280;67943;54.412;9.502;2023-05-10T09:15:59;100684.59;;;20.40;40.48
78623;BME280;67943;54.412;9.502;2023-05-10T09:21:01;100687.75;;;20.46;39.44
78623;BME280;67943;54.412;9.502;2023-05-10T09:26:04;100689.63;;;20.30;39.40
78623;BME280;67943;54.412;9.502;2023-05-10T09:31:06;100686.31;;;20.12;40.30
78623;BME280;67943;54.412;9.502;2023-05-10T09:36:07;100690.13;;;20.08;40.39
78623;BME280;67943;54.412;9.502;2023-05-10T09:41:16;100692.72;;;20.10;40.14
78623;BME280;67943;54.412;9.502;2023-05-10T09:46:18;100701.56;;;20.24;39.85
78623;BME280;67943;54.412;9.502;2023-05-10T09:51:20;100703.88;;;20.16;39.94
78623;BME280;67943;54.412;9.502;2023-05-10T09:56:38;100700.25;;;20.17;40.14
78623;BME280;67943;54.412;9.502;2023-05-10T10:01:40;100708.53;;;20.27;40.74
78623;BME280;67943;54.412;9.502;2023-05-10T10:06:42;100720.19;;;19.83;41.26
78623;BME280;67943;54.412;9.502;2023-05-10T10:11:45;100731.50;;;19.59;41.56
78623;BME280;67943;54.412;9.502;2023-05-10T10:16:47;100732.28;;;19.45;41.78
78623;BME280;67943;54.412;9.502;2023-05-10T10:21:50;100731.09;;;19.50;42.44
78623;BME280;67943;54.412;9.502;2023-05-10T10:26:55;100728.81;;;19.59;42.58
78623;BME280;67943;54.412;9.502;2023-05-10T10:32:03;100725.78;;;19.79;42.64
78623;BME280;67943;54.412;9.502;2023-05-10T10:37:08;100727.09;;;19.58;42.47
78623;BME280;67943;54.412;9.502;2023-05-10T10:42:11;100747.84;;;19.07;45.18
78623;BME280;67943;54.412;9.502;2023-05-10T10:47:22;100744.41;;;18.58;46.96
78623;BME280;67943;54.412;9.502;2023-05-10T10:52:26;100753.56;;;18.69;47.48
78623;BME280;67943;54.412;9.502;2023-05-10T10:57:33;100752.94;;;18.15;48.20
78623;BME280;67943;54.412;9.502;2023-05-10T11:02:43;100756.56;;;18.30;48.40
78623;BME280;67943;54.412;9.502;2023-05-10T11:07:52;100754.78;;;18.31;48.08
78623;BME280;67943;54.412;9.502;2023-05-10T11:13:00;100764.00;;;18.56;47.78
78623;BME280;67943;54.412;9.502;2023-05-10T11:18:17;100759.47;;;18.26;48.71
78623;BME280;67943;54.412;9.502;2023-05-10T11:23:19;100771.22;;;18.06;49.39
78623;BME280;67943;54.412;9.502;2023-05-10T11:28:22;100774.25;;;18.15;50.28
78623;BME280;67943;54.412;9.502;2023-05-10T11:33:24;100781.66;;;17.76;52.31
78623;BME280;67943;54.412;9.502;2023-05-10T11:38:25;100786.97;;;17.76;55.70
78623;BME280;67943;54.412;9.502;2023-05-10T11:43:28;100796.81;;;17.57;55.60
78623;BME280;67943;54.412;9.502;2023-05-10T11:48:31;100802.88;;;17.24;58.16
78623;BME280;67943;54.412;9.502;2023-05-10T11:53:32;100810.75;;;16.90;58.74
78623;BME280;67943;54.412;9.502;2023-05-10T11:58:36;100822.31;;;16.49;60.88
78623;BME280;67943;54.412;9.502;2023-05-10T12:03:40;100839.06;;;16.12;62.70
78623;BME280;67943;54.412;9.502;2023-05-10T12:08:44;100838.91;;;15.75;64.35
78623;BME280;67943;54.412;9.502;2023-05-10T12:13:47;100852.66;;;15.41;65.23
78623;BME280;67943;54.412;9.502;2023-05-10T12:18:50;100858.28;;;15.33;66.08
78623;BME280;67943;54.412;9.502;2023-05-10T12:23:54;100863.91;;;15.47;67.62
78623;BME280;67943;54.412;9.502;2023-05-10T12:34:30;100868.34;;;15.89;66.17
78623;BME280;67943;54.412;9.502;2023-05-10T12:39:40;100874.88;;;16.02;67.52
78623;BME280;67943;54.412;9.502;2023-05-10T12:44:42;100875.75;;;16.43;66.46
78623;BME280;67943;54.412;9.502;2023-05-10T12:49:45;100873.81;;;16.86;65.80
78623;BME280;67943;54.412;9.502;2023-05-10T12:54:46;100876.78;;;16.99;64.73
78623;BME280;67943;54.412;9.502;2023-05-10T12:59:48;100888.69;;;16.71;63.91
78623;BME280;67943;54.412;9.502;2023-05-10T13:04:51;100890.13;;;16.58;66.46
78623;BME280;67943;54.412;9.502;2023-05-10T13:09:52;100892.38;;;16.47;66.78
78623;BME280;67943;54.412;9.502;2023-05-10T13:14:54;100893.09;;;16.50;67.02
78623;BME280;67943;54.412;9.502;2023-05-10T13:19:57;100895.91;;;16.68;66.77
78623;BME280;67943;54.412;9.502;2023-05-10T13:24:58;100897.41;;;16.53;66.27
78623;BME280;67943;54.412;9.502;2023-05-10T13:30:00;100903.16;;;16.44;67.07
78623;BME280;67943;54.412;9.502;2023-05-10T13:35:05;100900.63;;;16.41;67.41
78623;BME280;67943;54.412;9.502;2023-05-10T13:40:08;100903.16;;;16.44;67.91
78623;BME280;67943;54.412;9.502;2023-05-10T13:45:10;100893.50;;;16.62;67.57
78623;BME280;67943;54.412;9.502;2023-05-10T13:50:13;100892.41;;;16.67;66.75
78623;BME280;67943;54.412;9.502;2023-05-10T13:55:15;100887.31;;;16.81;67.22
78623;BME280;67943;54.412;9.502;2023-05-10T14:00:17;100899.16;;;16.74;67.44
78623;BME280;67943;54.412;9.502;2023-05-10T14:05:19;100903.81;;;16.69;68.92
78623;BME280;67943;54.412;9.502;2023-05-10T14:10:21;100902.34;;;16.62;69.08
78623;BME280;67943;54.412;9.502;2023-05-10T14:15:23;100911.66;;;16.11;69.70
78623;BME280;67943;54.412;9.502;2023-05-10T14:20:25;100914.75;;;16.01;70.44
78623;BME280;67943;54.412;9.502;2023-05-10T14:25:27;100911.56;;;15.93;71.29
78623;BME280;67943;54.412;9.502;2023-05-10T14:30:28;100914.16;;;15.94;71.09
78623;BME280;67943;54.412;9.502;2023-05-10T14:35:32;100921.72;;;15.83;72.59
78623;BME280;67943;54.412;9.502;2023-05-10T14:40:33;100908.72;;;15.97;71.71
78623;BME280;67943;54.412;9.502;2023-05-10T14:45:36;100912.84;;;16.04;71.99
78623;BME280;67943;54.412;9.502;2023-05-10T14:50:38;100909.19;;;16.27;71.37
78623;BME280;67943;54.412;9.502;2023-05-10T14:55:40;100913.78;;;16.44;72.18
78623;BME280;67943;54.412;9.502;2023-05-10T15:00:41;100911.59;;;16.74;70.07
78623;BME280;67943;54.412;9.502;2023-05-10T15:05:45;100916.81;;;16.75;69.72
78623;BME280;67943;54.412;9.502;2023-05-10T15:10:46;100924.31;;;16.86;69.01
78623;BME280;67943;54.412;9.502;2023-05-10T15:15:48;100925.41;;;16.41;69.88
78623;BME280;67943;54.412;9.502;2023-05-10T15:20:50;100927.16;;;16.61;69.80
78623;BME280;67943;54.412;9.502;2023-05-10T15:25:52;100937.69;;;16.64;69.94
78623;BME280;67943;54.412;9.502;2023-05-10T15:30:55;100941.22;;;16.65;69.73
78623;BME280;67943;54.412;9.502;2023-05-10T15:35:58;100955.84;;;16.53;69.86
78623;BME280;67943;54.412;9.502;2023-05-10T15:41:00;100953.38;;;16.08;70.42
78623;BME280;67943;54.412;9.502;2023-05-10T15:46:01;100958.22;;;15.98;71.71
78623;BME280;67943;54.412;9.502;2023-05-10T15:51:04;100967.47;;;15.88;72.01
78623;BME280;67943;54.412;9.502;2023-05-10T15:56:06;100966.50;;;15.69;72.74
78623;BME280;67943;54.412;9.502;2023-05-10T16:01:08;100971.56;;;15.75;72.46
78623;BME280;67943;54.412;9.502;2023-05-10T16:06:12;100977.16;;;15.89;72.56
78623;BME280;67943;54.412;9.502;2023-05-10T16:11:14;100986.19;;;15.85;72.72
78623;BME280;67943;54.412;9.502;2023-05-10T16:16:15;100998.38;;;15.89;72.03
78623;BME280;67943;54.412;9.502;2023-05-10T16:21:18;100992.09;;;15.70;72.92
78623;BME280;67943;54.412;9.502;2023-05-10T16:26:20;101000.38;;;15.84;72.47
78623;BME280;67943;54.412;9.502;2023-05-10T16:31:21;100994.63;;;15.73;72.69
78623;BME280;67943;54.412;9.502;2023-05-10T16:36:24;101002.81;;;15.43;74.50
78623;BME280;67943;54.412;9.502;2023-05-10T16:41:26;101010.84;;;15.18;76.33
78623;BME280;67943;54.412;9.502;2023-05-10T16:46:27;101016.09;;;15.20;76.80
78623;BME280;67943;54.412;9.502;2023-05-10T16:51:30;101020.31;;;15.26;77.25
78623;BME280;67943;54.412;9.502;2023-05-10T16:56:31;101023.00;;;15.24;76.86
78623;BME280;67943;54.412;9.502;2023-05-10T17:01:33;101020.19;;;15.29;76.46
78623;BME280;67943;54.412;9.502;2023-05-10T17:06:36;101030.50;;;15.36;76.26
78623;BME280;67943;54.412;9.502;2023-05-10T17:11:37;101025.78;;;15.44;76.15
78623;BME280;67943;54.412;9.502;2023-05-10T17:16:39;101037.63;;;15.34;76.04
78623;BME280;67943;54.412;9.502;2023-05-10T17:21:42;101036.31;;;15.23;76.95
78623;BME280;67943;54.412;9.502;2023-05-10T17:26:44;101039.94;;;15.20;77.83
78623;BME280;67943;54.412;9.502;2023-05-10T17:31:45;101043.25;;;15.27;77.60
78623;BME280;67943;54.412;9.502;2023-05-10T17:36:48;101053.84;;;15.27;77.02
78623;BME280;67943;54.412;9.502;2023-05-10T17:41:50;101057.53;;;15.23;77.42
78623;BME280;67943;54.412;9.502;2023-05-10T17:46:51;101060.13;;;15.24;77.61
78623;BME280;67943;54.412;9.502;2023-05-10T17:51:54;101063.84;;;15.18;77.30
78623;BME280;67943;54.412;9.502;2023-05-10T17:56:55;101068.50;;;15.12;77.44
78623;BME280;67943;54.412;9.502;2023-05-10T18:01:57;101080.34;;;15.02;76.61
78623;BME280;67943;54.412;9.502;2023-05-10T18:07:00;101073.06;;;14.83;77.14
78623;BME280;67943;54.412;9.502;2023-05-10T18:12:02;101087.38;;;14.78;77.53
78623;BME280;67943;54.412;9.502;2023-05-10T18:17:03;101096.41;;;14.72;77.90
78623;BME280;67943;54.412;9.502;2023-05-10T18:22:06;101108.03;;;14.68;77.92
78623;BME280;67943;54.412;9.502;2023-05-10T18:27:08;101103.94;;;14.58;78.44
78623;BME280;67943;54.412;9.502;2023-05-10T18:32:10;101116.28;;;14.59;78.17
78623;BME280;67943;54.412;9.502;2023-05-10T18:37:12;101120.66;;;14.60;77.85
78623;BME280;67943;54.412;9.502;2023-05-10T18:42:15;101122.56;;;14.55;78.05
78623;BME280;67943;54.412;9.502;2023-05-10T18:47:16;101131.44;;;14.54;78.04
78623;BME280;67943;54.412;9.502;2023-05-10T18:52:19;101137.03;;;14.45;77.83
78623;BME280;67943;54.412;9.502;2023-05-10T18:57:21;101151.53;;;14.32;78.13
78623;BME280;67943;54.412;9.502;2023-05-10T19:02:23;101156.94;;;14.29;77.86
78623;BME280;67943;54.412;9.502;2023-05-10T19:07:27;101158.28;;;14.14;78.22
78623;BME280;67943;54.412;9.502;2023-05-10T19:12:29;101164.50;;;14.13;78.36
78623;BME280;67943;54.412;9.502;2023-05-10T19:17:30;101170.19;;;13.99;78.34
78623;BME280;67943;54.412;9.502;2023-05-10T19:22:33;101175.59;;;13.95;78.53
78623;BME280;67943;54.412;9.502;2023-05-10T19:27:35;101182.84;;;13.88;78.62
78623;BME280;67943;54.412;9.502;2023-05-10T19:32:36;101194.53;;;13.81;78.95
78623;BME280;67943;54.412;9.502;2023-05-10T19:37:39;101202.63;;;13.75;78.93
78623;BME280;67943;54.412;9.502;2023-05-10T19:42:45;101209.91;;;13.67;78.57
78623;BME280;67943;54.412;9.502;2023-05-10T19:47:46;101206.72;;;13.56;78.67
78623;BME280;67943;54.412;9.502;2023-05-10T19:52:49;101210.59;;;13.42;79.03
78623;BME280;67943;54.412;9.502;2023-05-10T19:57:51;101213.94;;;13.49;78.56
78623;BME280;67943;54.412;9.502;2023-05-10T20:02:52;101213.06;;;13.48;78.53
78623;BME280;67943;54.412;9.502;2023-05-10T20:07:55;101217.59;;;13.43;78.44
78623;BME280;67943;54.412;9.502;2023-05-10T20:12:57;101231.03;;;13.36;78.40
78623;BME280;67943;54.412;9.502;2023-05-10T20:17:59;101233.78;;;13.31;78.36
78623;BME280;67943;54.412;9.502;2023-05-10T20:23:04;101235.69;;;13.26;78.64
78623;BME280;67943;54.412;9.502;2023-05-10T20:28:05;101232.16;;;13.27;78.46
78623;BME280;67943;54.412;9.502;2023-05-10T20:33:09;101234.22;;;13.13;79.49
78623;BME280;67943;54.412;9.502;2023-05-10T20:38:12;101240.31;;;13.18;79.33
78623;BME280;67943;54.412;9.502;2023-05-10T20:43:13;101242.97;;;13.15;78.86
78623;BME280;67943;54.412;9.502;2023-05-10T20:48:31;101233.66;;;13.00;79.43
78623;BME280;67943;54.412;9.502;2023-05-10T20:53:34;101237.38;;;12.93;79.42
78623;BME280;67943;54.412;9.502;2023-05-10T20:58:36;101243.59;;;12.91;79.86
78623;BME280;67943;54.412;9.502;2023-05-10T21:03:37;101245.59;;;12.79;80.30
78623;BME280;67943;54.412;9.502;2023-05-10T21:08:40;101242.94;;;12.81;80.35
78623;BME280;67943;54.412;9.502;2023-05-10T21:13:41;101245.69;;;12.76;80.43
78623;BME280;67943;54.412;9.502;2023-05-10T21:18:43;101252.69;;;12.77;80.59
78623;BME280;67943;54.412;9.502;2023-05-10T21:23:46;101255.28;;;12.80;79.80
78623;BME280;67943;54.412;9.502;2023-05-10T21:28:47;101244.78;;;12.77;80.09
78623;BME280;67943;54.412;9.502;2023-05-10T21:33:49;101255.41;;;12.74;80.07
78623;BME280;67943;54.412;9.502;2023-05-10T21:38:52;101246.81;;;12.66;80.63
78623;BME280;67943;54.412;9.502;2023-05-10T21:43:53;101245.09;;;12.65;80.73
78623;BME280;67943;54.412;9.502;2023-05-10T21:48:55;101245.94;;;12.66;81.14
78623;BME280;67943;54.412;9.502;2023-05-10T21:53:58;101244.25;;;12.63;81.43
78623;BME280;67943;54.412;9.502;2023-05-10T21:59:00;101254.81;;;12.63;81.61
78623;BME280;67943;54.412;9.502;2023-05-10T22:04:01;101260.09;;;12.63;81.84
78623;BME280;67943;54.412;9.502;2023-05-10T22:09:04;101261.69;;;12.70;81.38
78623;BME280;67943;54.412;9.502;2023-05-10T22:14:06;101258.13;;;12.71;81.44
78623;BME280;67943;54.412;9.502;2023-05-10T22:19:07;101268.06;;;12.60;81.43
78623;BME280;67943;54.412;9.502;2023-05-10T22:24:10;101272.44;;;12.61;81.25
78623;BME280;67943;54.412;9.502;2023-05-10T22:29:12;101270.72;;;12.60;81.00
78623;BME280;67943;54.412;9.502;2023-05-10T22:34:13;101274.25;;;12.59;81.12
78623;BME280;67943;54.412;9.502;2023-05-10T22:39:16;101279.47;;;12.62;80.33
78623;BME280;67943;54.412;9.502;2023-05-10T22:44:18;101276.78;;;12.64;80.08
78623;BME280;67943;54.412;9.502;2023-05-10T22:49:20;101283.75;;;12.68;79.89
78623;BME280;67943;54.412;9.502;2023-05-10T22:54:22;101292.53;;;12.68;79.56
78623;BME280;67943;54.412;9.502;2023-05-10T22:59:25;101288.50;;;12.50;80.25
78623;BME280;67943;54.412;9.502;2023-05-10T23:04:27;101292.81;;;12.55;79.92
78623;BME280;67943;54.412;9.502;2023-05-10T23:09:30;101299.94;;;12.51;80.02
78623;BME280;67943;54.412;9.502;2023-05-10T23:14:32;101307.06;;;12.46;80.20
78623;BME280;67943;54.412;9.502;2023-05-10T23:19:33;101299.22;;;12.43;80.30
78623;BME280;67943;54.412;9.502;2023-05-10T23:24:36;101296.47;;;12.49;79.71
78623;BME280;67943;54.412;9.502;2023-05-10T23:29:38;101306.34;;;12.41;79.93
78623;BME280;67943;54.412;9.502;2023-05-10T23:34:39;101302.75;;;12.42;79.77
78623;BME280;67943;54.412;9.502;2023-05-10T23:39:42;101309.72;;;12.46;79.84
78623;BME280;67943;54.412;9.502;2023-05-10T23:44:44;101309.72;;;12.46;79.90
78623;BME280;67943;54.412;9.502;2023-05-10T23:49:46;101316.88;;;12.41;80.14
78623;BME280;67943;54.412;9.502;2023-05-10T23:54:48;101317.84;;;12.37;80.30
78623;BME280;67943;54.412;9.502;2023-05-10T23:59:50;101323.13;;;12.37;80.62
